Time;durP1;ratioP1;P1;durP2;ratioP2;P2;SDS_P1;SDS_P2;PMS_P1;PMS_P2;Temp;Humidity;BMP_temperature;BMP_pressure;BME280_temperature;BME280_humidity;BME280_pressure;Samples;Min_cycle;Max_cycle;Signal;HPM_P1;HPM_P2
2022/09/22 00:01:19;;;;;;;4.90;1.60;;;;;;;7.92;78.50;101798.91;5074402;28;20603;-82
2022/09/22 00:03:53;;;;;;;1.90;1.20;;;;;;;7.89;79.16;101795.50;5073637;28;20844;-82
2022/09/22 00:06:21;;;;;;;2.90;1.50;;;;;;;7.86;80.16;101792.97;5082365;28;20224;-83
2022/09/22 00:08:51;;;;;;;3.13;1.63;;;;;;;7.84;79.56;101790.38;5087161;28;20204;-82
2022/09/22 00:11:21;;;;;;;3.90;1.60;;;;;;;7.83;79.82;101795.72;5080159;28;20204;-82
2022/09/22 00:13:49;;;;;;;2.87;1.50;;;;;;;7.80;79.89;101794.03;5077220;28;20752;-81
2022/09/22 00:16:18;;;;;;;3.23;1.40;;;;;;;7.78;79.53;101795.00;5071645;28;20200;-82
2022/09/22 00:18:44;;;;;;;9.30;1.83;;;;;;;7.76;79.80;101788.88;5069601;28;20201;-83
2022/09/22 00:21:13;;;;;;;2.17;1.47;;;;;;;7.73;80.14;101786.31;5079428;28;20595;-82
2022/09/22 00:23:41;;;;;;;2.20;1.63;;;;;;;7.68;80.30;101781.19;5071293;28;20972;-83
2022/09/22 00:26:09;;;;;;;5.37;1.80;;;;;;;7.63;80.28;101778.69;5067586;28;20228;-81
2022/09/22 00:28:39;;;;;;;4.03;2.27;;;;;;;7.60;80.73;101788.53;5078484;28;20923;-81
2022/09/22 00:31:06;;;;;;;3.57;1.67;;;;;;;7.58;80.44;101793.88;5067869;28;20203;-84
2022/09/22 00:33:33;;;;;;;4.53;1.90;;;;;;;7.55;80.55;101786.03;5069274;28;20228;-84
2022/09/22 00:36:01;;;;;;;2.30;1.60;;;;;;;7.51;80.61;101792.38;5077666;28;20201;-84
2022/09/22 00:38:27;;;;;;;3.90;1.87;;;;;;;7.50;80.97;101789.75;5066679;28;20656;-84
2022/09/22 00:40:54;;;;;;;3.67;1.97;;;;;;;7.47;80.86;101789.84;5061107;28;20208;-85
2022/09/22 00:43:24;;;;;;;2.90;1.73;;;;;;;7.45;81.04;101787.25;5071565;28;20585;-84
2022/09/22 00:45:58;;;;;;;4.03;1.63;;;;;;;7.44;81.17;101788.16;5064118;28;20883;-84
2022/09/22 00:48:28;;;;;;;3.23;1.60;;;;;;;7.42;81.16;101787.34;5064897;28;20220;-84
2022/09/22 00:50:59;;;;;;;3.33;2.13;;;;;;;7.41;81.41;101780.31;5066859;28;20205;-83
2022/09/22 00:53:26;;;;;;;3.00;1.63;;;;;;;7.40;81.89;101783.00;5065450;28;20228;-84
2022/09/22 00:55:57;;;;;;;5.00;1.70;;;;;;;7.38;81.93;101791.00;5069839;28;20209;-84
2022/09/22 00:58:29;;;;;;;2.40;1.80;;;;;;;7.36;81.71;101784.88;5062203;28;20200;-84
2022/09/22 01:00:56;;;;;;;3.63;1.80;;;;;;;7.32;81.55;101780.63;5065780;28;20220;-84
2022/09/22 01:03:25;;;;;;;3.37;1.70;;;;;;;7.29;82.07;101786.00;5068345;28;20240;-84
2022/09/22 01:05:57;;;;;;;4.17;1.77;;;;;;;7.27;82.10;101787.84;5063842;28;20209;-83
2022/09/22 01:08:25;;;;;;;2.87;1.57;;;;;;;7.23;nan;101778.25;5061530;28;20229;-84
2022/09/22 01:10:52;;;;;;;3.00;1.60;;;;;;;7.21;82.04;101777.41;5061278;28;20205;-84
2022/09/22 01:13:25;;;;;;;3.90;1.60;;;;;;;7.15;81.87;101777.63;5065672;28;20227;-84
2022/09/22 01:16:05;;;;;;;3.67;1.60;;;;;;;7.09;81.61;101783.09;5065972;28;20209;-84
2022/09/22 01:18:47;;;;;;;2.60;1.60;;;;;;;7.02;81.90;101777.13;5059183;28;20193;-83
2022/09/22 01:21:32;;;;;;;3.10;1.43;;;;;;;6.99;82.24;101779.03;5061855;28;20403;-84
2022/09/22 01:24:47;;;;;;;4.30;1.40;;;;;;;6.96;82.34;101772.03;5065878;28;20225;-84
2022/09/22 01:27:53;;;;;;;4.23;1.70;;;;;;;6.94;81.91;101774.72;5053603;28;20221;-84
2022/09/22 01:30:24;;;;;;;2.03;1.40;;;;;;;6.93;82.89;101767.69;5065024;28;20201;-83
2022/09/22 01:33:26;;;;;;;2.17;1.60;;;;;;;6.92;82.61;101771.25;5065709;28;20256;-85
2022/09/22 01:36:02;;;;;;;4.83;1.90;;;;;;;6.91;83.20;101769.50;5063125;28;20208;-84
2022/09/22 01:38:36;;;;;;;2.63;1.33;;;;;;;6.89;82.67;101771.34;5065139;28;20208;-83
2022/09/22 01:41:08;;;;;;;2.63;1.73;;;;;;;6.89;82.90;101767.81;5067432;28;20212;-84
2022/09/22 01:43:42;;;;;;;2.80;1.63;;;;;;;6.86;83.08;101763.47;5071695;28;20228;-84
2022/09/22 01:46:14;;;;;;;2.53;1.53;;;;;;;6.85;83.16;101763.53;5074754;28;20200;-84
2022/09/22 01:48:46;;;;;;;2.33;1.43;;;;;;;6.82;82.83;101756.53;5070984;28;20213;-84
2022/09/22 01:51:18;;;;;;;2.47;1.60;;;;;;;6.80;82.82;101763.69;5063659;28;20589;-84
2022/09/22 01:53:50;;;;;;;1.40;1.27;;;;;;;6.76;82.62;101762.03;5062852;28;20232;-84
2022/09/22 01:56:20;;;;;;;2.23;1.50;;;;;;;6.71;82.82;101758.66;5074512;28;20205;-84
2022/09/22 01:58:50;;;;;;;2.13;1.20;;;;;;;6.67;83.03;101764.94;5069454;28;20592;-84
2022/09/22 02:01:22;;;;;;;4.43;1.67;;;;;;;6.63;82.65;101762.47;5071122;28;20708;-84
2022/09/22 02:03:53;;;;;;;2.43;1.33;;;;;;;6.57;82.85;101752.91;5072004;28;20230;-85
2022/09/22 02:06:25;;;;;;;2.27;1.10;;;;;;;6.53;83.14;101756.53;5071984;28;20209;-85
2022/09/22 02:08:56;;;;;;;2.33;1.53;;;;;;;6.50;83.71;101749.56;5072547;28;20837;-85
2022/09/22 02:11:23;;;;;;;3.70;2.00;;;;;;;6.50;83.80;101759.28;5073815;28;20209;-85
2022/09/22 02:13:51;;;;;;;5.90;1.50;;;;;;;6.49;83.87;101755.75;5074029;28;20221;-85
2022/09/22 02:16:22;;;;;;;2.70;1.60;;;;;;;6.48;84.01;101754.03;5074129;28;20787;-85
2022/09/22 02:18:51;;;;;;;3.43;1.70;;;;;;;6.46;83.78;101747.91;5069834;28;20778;-85
2022/09/22 02:21:19;;;;;;;3.63;1.90;;;;;;;6.46;84.25;101755.84;5062814;28;20205;-84
2022/09/22 02:23:47;;;;;;;2.17;1.43;;;;;;;6.44;84.44;101747.09;5064604;28;20691;-84
2022/09/22 02:26:22;;;;;;;2.27;1.80;;;;;;;6.44;83.94;101754.19;5068442;28;20220;-84
2022/09/22 02:28:53;;;;;;;3.03;1.70;;;;;;;6.43;84.07;101757.72;5067047;28;20212;-84
2022/09/22 02:31:24;;;;;;;2.80;1.37;;;;;;;6.41;84.47;101754.25;5065004;28;20216;-83
2022/09/22 02:33:52;;;;;;;3.27;1.50;;;;;;;6.38;84.44;101747.28;5067809;28;20605;-84
2022/09/22 02:36:34;;;;;;;2.83;1.60;;;;;;;6.36;84.44;101749.09;5070849;28;20645;-84
2022/09/22 02:39:07;;;;;;;2.13;1.73;;;;;;;6.33;84.57;101748.31;5070484;28;20193;-83
2022/09/22 02:41:46;;;;;;;2.13;1.70;;;;;;;6.30;84.28;101749.25;5066108;28;20730;-84
2022/09/22 02:44:18;;;;;;;3.60;1.83;;;;;;;6.26;84.85;101745.84;5070660;28;20231;-84
2022/09/22 02:46:54;;;;;;;2.73;1.57;;;;;;;6.24;84.62;101741.50;5070622;28;20201;-84
2022/09/22 02:49:23;;;;;;;2.07;1.67;;;;;;;6.21;84.84;101734.53;5066615;28;20201;-84
2022/09/22 02:51:50;;;;;;;4.43;1.70;;;;;;;6.21;85.50;101736.31;5065183;28;20207;-84
2022/09/22 02:54:17;;;;;;;4.23;1.70;;;;;;;6.21;85.60;101734.53;5062900;28;20600;-84
2022/09/22 02:56:44;;;;;;;2.87;1.50;;;;;;;6.21;85.68;101731.88;5059176;28;20209;-83
2022/09/22 02:59:11;;;;;;;3.23;1.53;;;;;;;6.22;85.90;101738.91;5064411;28;20586;-84
2022/09/22 03:01:38;;;;;;;3.23;1.40;;;;;;;6.22;86.02;101728.31;5070723;28;20583;-87
2022/09/22 03:04:06;;;;;;;3.87;1.50;;;;;;;6.22;85.79;101725.69;5068500;28;20592;-86
2022/09/22 03:06:32;;;;;;;3.10;1.37;;;;;;;6.25;86.14;101724.72;5067021;28;20208;-86
2022/09/22 03:08:59;;;;;;;3.13;1.57;;;;;;;6.25;86.52;101730.03;5062499;28;20233;-85
2022/09/22 03:11:26;;;;;;;3.27;1.33;;;;;;;6.26;86.29;101722.03;5068322;28;20213;-84
2022/09/22 03:13:52;;;;;;;1.83;1.60;;;;;;;6.27;86.50;101726.41;5068162;28;20220;-84
2022/09/22 03:16:19;;;;;;;5.47;1.90;;;;;;;6.28;86.42;101724.63;5064346;28;20202;-84
2022/09/22 03:18:45;;;;;;;2.57;1.60;;;;;;;6.31;86.48;101726.31;5064371;28;20202;-84
2022/09/22 03:21:13;;;;;;;2.83;1.70;;;;;;;6.29;86.35;101713.13;5069342;28;20212;-85
2022/09/22 03:23:39;;;;;;;3.40;1.63;;;;;;;6.29;86.57;101721.06;5071801;28;20231;-85
2022/09/22 03:26:06;;;;;;;3.90;1.70;;;;;;;6.30;86.60;101714.88;5068999;28;20201;-84
2022/09/22 03:28:32;;;;;;;3.33;1.50;;;;;;;6.31;86.90;101721.88;5067154;28;20714;-85
2022/09/22 03:30:59;;;;;;;3.23;1.70;;;;;;;6.32;86.68;101714.81;5063191;28;20205;-85
2022/09/22 03:33:25;;;;;;;3.43;2.20;;;;;;;6.31;87.05;101718.38;5064565;28;20224;-85
2022/09/22 03:35:52;;;;;;;5.73;1.80;;;;;;;6.30;86.70;101714.00;5066464;28;20300;-85
2022/09/22 03:38:19;;;;;;;3.77;2.37;;;;;;;6.30;86.82;101716.63;5066552;28;20221;-85
2022/09/22 03:40:49;;;;;;;6.80;2.43;;;;;;;6.30;86.48;101714.00;5064939;28;20212;-84
2022/09/22 03:43:16;;;;;;;2.63;1.83;;;;;;;6.27;86.85;101713.16;5066852;28;20293;-86
2022/09/22 03:45:43;;;;;;;3.57;1.50;;;;;;;6.29;87.20;101713.13;5069931;28;20227;-84
2022/09/22 03:48:09;;;;;;;2.83;1.70;;;;;;;6.27;86.77;101709.66;5065925;28;20560;-84
2022/09/22 03:50:36;;;;;;;5.47;1.70;;;;;;;6.25;86.87;101709.72;5062910;28;20206;-85
2022/09/22 03:53:02;;;;;;;3.33;1.70;;;;;;;6.24;87.08;101708.00;5070124;28;20232;-85
2022/09/22 03:55:30;;;;;;;2.00;1.40;;;;;;;6.25;87.59;101717.66;5076719;28;20211;-84
2022/09/22 03:57:57;;;;;;;2.73;1.47;;;;;;;6.25;87.59;101714.16;5067918;28;20571;-84
2022/09/22 04:00:23;;;;;;;3.77;1.50;;;;;;;6.25;87.21;101711.50;5061436;28;20213;-85
2022/09/22 04:02:50;;;;;;;2.53;1.30;;;;;;;6.25;87.38;101709.72;5069905;28;20221;-85
2022/09/22 04:05:16;;;;;;;2.10;1.17;;;;;;;6.26;87.67;101706.16;5079104;28;20212;-85
2022/09/22 04:07:43;;;;;;;2.47;1.60;;;;;;;6.25;87.31;101703.56;5078040;28;20240;-83
2022/09/22 04:10:09;;;;;;;4.47;1.77;;;;;;;6.24;87.57;101692.13;5071761;28;20206;-84
2022/09/22 04:12:37;;;;;;;2.50;1.50;;;;;;;6.25;87.50;101704.44;5072353;28;20228;-84
2022/09/22 04:15:05;;;;;;;3.70;1.80;;;;;;;6.25;87.40;101708.84;5082270;28;20204;-84
2022/09/22 04:17:31;;;;;;;4.03;2.10;;;;;;;6.23;87.99;101700.97;5069937;28;20654;-83
2022/09/22 04:19:58;;;;;;;4.13;1.80;;;;;;;6.24;87.66;101702.69;5062358;28;20205;-84
2022/09/22 04:22:24;;;;;;;3.77;2.10;;;;;;;6.23;87.98;101700.97;5073911;28;20201;-83
2022/09/22 04:24:51;;;;;;;2.77;1.93;;;;;;;6.24;87.62;101697.41;5069802;28;20223;-85
2022/09/22 04:27:17;;;;;;;7.47;2.60;;;;;;;6.25;87.73;101700.91;5074643;28;20623;-84
2022/09/22 04:29:45;;;;;;;4.20;2.37;;;;;;;6.24;88.16;101697.41;5064634;28;20228;-83
2022/09/22 04:32:13;;;;;;;4.03;2.47;;;;;;;6.23;88.45;101693.03;5065531;28;20209;-86
2022/09/22 04:34:39;;;;;;;5.17;2.00;;;;;;;6.19;87.91;101688.72;5066576;28;20206;-86
2022/09/22 04:37:06;;;;;;;4.17;2.50;;;;;;;6.14;87.77;101695.91;5075364;28;20784;-85
2022/09/22 04:39:32;;;;;;;3.43;2.17;;;;;;;6.12;87.49;101681.88;5083368;28;20200;-85
2022/09/22 04:41:59;;;;;;;3.57;2.03;;;;;;;6.11;87.36;101693.34;5069974;28;20201;-84
2022/09/22 04:44:25;;;;;;;3.27;2.00;;;;;;;6.10;87.65;101688.97;5068678;28;20229;-83
2022/09/22 04:46:55;;;;;;;4.73;2.07;;;;;;;6.09;87.73;101689.88;5069939;28;20205;-85
2022/09/22 04:49:21;;;;;;;3.20;2.30;;;;;;;6.06;87.64;101687.34;5068089;28;20247;-84
2022/09/22 04:51:48;;;;;;;3.93;2.20;;;;;;;6.06;87.48;101689.13;5073114;28;20212;-85
2022/09/22 04:54:14;;;;;;;3.77;2.13;;;;;;;6.01;87.44;101689.25;5076571;28;20235;-84
2022/09/22 04:56:42;;;;;;;4.43;2.13;;;;;;;5.99;87.36;101684.91;5069018;28;20193;-85
2022/09/22 04:59:08;;;;;;;3.10;2.20;;;;;;;5.97;87.67;101692.00;5072044;28;20197;-85
2022/09/22 05:01:35;;;;;;;2.07;1.87;;;;;;;5.95;87.16;101689.41;5070319;28;20208;-86
2022/09/22 05:04:08;;;;;;;7.20;2.23;;;;;;;5.93;87.44;101685.94;5067373;28;20221;-86
2022/09/22 05:06:36;;;;;;;2.80;1.93;;;;;;;5.92;87.31;101682.44;5068602;28;20204;-83
2022/09/22 05:09:09;;;;;;;3.63;1.93;;;;;;;5.89;87.30;101682.53;5067815;28;20224;-83
2022/09/22 05:11:37;;;;;;;7.03;2.23;;;;;;;5.86;87.67;101687.88;5061010;28;20288;-84
2022/09/22 05:14:03;;;;;;;4.53;2.33;;;;;;;5.84;87.20;101680.88;5071833;28;20266;-84
2022/09/22 05:16:31;;;;;;;4.97;2.70;;;;;;;5.83;87.21;101687.06;5070133;28;20197;-84
2022/09/22 05:18:57;;;;;;;5.23;2.00;;;;;;;5.82;87.53;101685.34;5066906;28;20275;-84
2022/09/22 05:21:25;;;;;;;3.03;2.40;;;;;;;5.81;87.41;101686.25;5072897;28;20200;-84
2022/09/22 05:23:52;;;;;;;3.60;2.00;;;;;;;5.80;87.30;101689.78;5069901;28;20243;-83
2022/09/22 05:26:19;;;;;;;5.00;2.10;;;;;;;5.77;87.34;101682.81;5068613;28;20246;-82
2022/09/22 05:28:45;;;;;;;4.50;2.00;;;;;;;5.76;87.37;101681.06;5065302;28;20725;-84
2022/09/22 05:31:12;;;;;;;5.43;2.23;;;;;;;5.75;87.47;101691.69;5063322;28;20209;-84
2022/09/22 05:33:38;;;;;;;4.90;2.03;;;;;;;5.74;87.22;101696.09;5061513;28;20231;-85
2022/09/22 05:36:05;;;;;;;4.07;1.90;;;;;;;5.75;87.42;101691.69;5070141;28;20212;-85
2022/09/22 05:38:32;;;;;;;6.30;2.30;;;;;;;5.76;87.52;101693.44;5071195;28;20227;-85
2022/09/22 05:41:00;;;;;;;4.40;2.37;;;;;;;5.75;87.50;101699.63;5067520;28;20205;-84
2022/09/22 05:43:26;;;;;;;3.20;2.00;;;;;;;5.75;87.68;101696.97;5072044;28;20251;-84
2022/09/22 05:45:53;;;;;;;4.43;2.00;;;;;;;5.78;87.53;101691.63;5063755;28;20197;-85
2022/09/22 05:48:19;;;;;;;2.77;1.73;;;;;;;5.79;87.43;101691.56;5062570;28;20213;-85
2022/09/22 05:50:46;;;;;;;3.10;2.03;;;;;;;5.83;87.78;101689.72;5065274;28;20200;-84
2022/09/22 05:53:13;;;;;;;4.47;2.50;;;;;;;5.88;87.90;101698.41;5068145;28;20234;-85
2022/09/22 05:55:41;;;;;;;4.27;2.23;;;;;;;5.90;87.99;101697.50;5066993;28;20212;-84
2022/09/22 05:58:10;;;;;;;5.27;2.10;;;;;;;5.94;87.50;101714.13;5067172;28;20197;-84
2022/09/22 06:00:37;;;;;;;2.07;1.77;;;;;;;5.94;87.81;101703.53;5064628;28;20206;-84
2022/09/22 06:03:04;;;;;;;3.40;1.70;;;;;;;5.95;87.60;101707.91;5064550;28;20225;-86
2022/09/22 06:05:30;;;;;;;6.07;2.00;;;;;;;5.99;88.03;101708.72;5063697;28;20208;-84
2022/09/22 06:08:01;;;;;;;3.87;2.20;;;;;;;6.02;87.88;101713.91;5065310;28;20198;-85
2022/09/22 06:10:28;;;;;;;3.53;1.90;;;;;;;6.05;88.29;101714.69;5066482;28;20201;-85
2022/09/22 06:12:59;;;;;;;6.27;3.03;;;;;;;6.07;88.04;101710.25;5065369;28;20626;-86
2022/09/22 06:15:27;;;;;;;2.77;1.80;;;;;;;6.13;88.16;101711.81;5062681;28;20197;-85
2022/09/22 06:17:54;;;;;;;6.80;2.33;;;;;;;6.17;88.46;101711.72;5071467;28;20304;-84
2022/09/22 06:20:20;;;;;;;2.87;2.00;;;;;;;6.21;88.81;101702.78;5075027;28;20216;-84
2022/09/22 06:22:47;;;;;;;6.60;2.13;;;;;;;6.28;89.36;101709.63;5064227;28;20226;-84
2022/09/22 06:25:14;;;;;;;4.20;2.53;;;;;;;6.34;89.53;101708.56;5067809;28;20771;-83
2022/09/22 06:27:41;;;;;;;4.37;2.40;;;;;;;6.42;89.67;101708.38;5067230;28;20197;-84
2022/09/22 06:30:10;;;;;;;4.23;2.40;;;;;;;6.49;89.91;101708.13;5061424;28;20221;-84
2022/09/22 06:32:38;;;;;;;4.00;2.40;;;;;;;6.58;90.03;101699.06;5060959;28;20243;-84
2022/09/22 06:35:05;;;;;;;5.63;2.20;;;;;;;6.67;90.56;101701.41;5067028;28;20206;-86
2022/09/22 06:37:32;;;;;;;5.30;2.27;;;;;;;6.74;91.31;101700.31;5064971;28;20205;-86
2022/09/22 06:39:58;;;;;;;3.70;2.50;;;;;;;6.80;91.18;101705.44;5061297;28;20568;-86
2022/09/22 06:42:25;;;;;;;6.63;2.43;;;;;;;6.86;91.67;101699.94;5068259;28;20200;-86
2022/09/22 06:44:52;;;;;;;3.97;2.53;;;;;;;6.95;91.75;101696.16;5062324;28;20198;-86
2022/09/22 06:47:20;;;;;;;4.90;2.90;;;;;;;7.01;92.01;101695.94;5075157;28;20200;-86
2022/09/22 06:49:46;;;;;;;11.33;2.93;;;;;;;7.08;92.03;101700.13;5068979;28;20235;-88
2022/09/22 06:52:13;;;;;;;4.60;2.73;;;;;;;7.15;91.61;101693.72;5071700;28;20820;-87
2022/09/22 06:54:40;;;;;;;7.03;2.67;;;;;;;7.23;92.38;101699.63;5082570;28;20250;-88
2022/09/22 06:57:07;;;;;;;6.40;2.87;;;;;;;7.31;92.12;101697.59;5079621;28;20204;-88
2022/09/22 06:59:36;;;;;;;5.10;3.23;;;;;;;7.39;92.46;101697.31;5071196;28;20201;-88
2022/09/22 07:02:06;;;;;;;5.53;3.07;;;;;;;7.45;92.87;101697.13;5071761;28;20255;-87
2022/09/22 07:04:33;;;;;;;4.00;2.57;;;;;;;7.51;92.23;101691.63;5074934;28;20224;-87
2022/09/22 07:07:02;;;;;;;5.90;2.93;;;;;;;7.60;92.85;101688.66;5080977;28;20212;-88
2022/09/22 07:09:29;;;;;;;5.93;3.27;;;;;;;7.69;92.65;101686.63;5072515;28;20228;-84
2022/09/22 07:11:56;;;;;;;7.33;3.77;;;;;;;7.78;92.32;101699.53;5073465;28;20216;-87
2022/09/22 07:14:24;;;;;;;7.27;3.77;;;;;;;7.86;92.51;101693.06;5074277;28;20228;-84
2022/09/22 07:16:51;;;;;;;5.20;3.33;;;;;;;7.94;92.44;101690.13;5073309;28;20205;-84
2022/09/22 07:19:17;;;;;;;6.93;3.97;;;;;;;8.03;92.51;101689.78;5072665;28;20240;-85
2022/09/22 07:21:46;;;;;;;5.50;3.30;;;;;;;8.13;92.78;101700.94;5073254;28;20208;-84
2022/09/22 07:24:13;;;;;;;7.60;3.53;;;;;;;8.23;93.34;101700.56;5076455;28;20297;-85
2022/09/22 07:26:42;;;;;;;7.40;3.37;;;;;;;8.35;93.03;101705.44;5072704;28;20201;-85
2022/09/22 07:29:12;;;;;;;5.73;3.80;;;;;;;8.48;92.54;101697.84;5084176;28;20613;-85
2022/09/22 07:31:40;;;;;;;7.50;3.53;;;;;;;8.63;93.56;101699.06;5072982;28;20247;-85
2022/09/22 07:34:06;;;;;;;6.20;3.63;;;;;;;8.79;93.80;101701.97;5072428;28;20224;-84
2022/09/22 07:36:35;;;;;;;7.50;3.10;;;;;;;8.96;93.77;101704.84;5086397;28;20203;-83
2022/09/22 07:39:06;;;;;;;7.73;3.50;;;;;;;9.13;93.17;101709.50;5073355;28;20201;-84
2022/09/22 07:41:40;;;;;;;4.00;3.23;;;;;;;9.28;92.83;101701.75;5072337;28;20205;-84
2022/09/22 07:46:47;;;;;;;8.57;3.37;;;;;;;9.65;92.44;101697.56;5070594;28;20203;-84
2022/09/22 07:49:16;;;;;;;5.77;3.20;;;;;;;9.83;92.45;101693.25;5071695;28;20235;-84
2022/09/22 07:51:43;;;;;;;4.10;2.97;;;;;;;10.01;91.51;101700.41;5072574;28;20208;-84
2022/09/22 07:54:11;;;;;;;5.17;2.87;;;;;;;10.18;90.66;101700.53;5072224;28;20229;-83
2022/09/22 07:56:39;;;;;;;6.00;2.87;;;;;;;10.36;90.50;101705.06;5072328;28;20208;-83
2022/09/22 07:59:08;;;;;;;5.00;2.73;;;;;;;10.54;89.65;101698.00;5072634;28;20737;-83
2022/09/22 08:01:36;;;;;;;8.13;2.80;;;;;;;10.73;89.33;101696.22;5071802;28;20213;-84
2022/09/22 08:04:03;;;;;;;6.33;2.77;;;;;;;10.94;88.73;101694.28;5072068;28;20227;-84
2022/09/22 08:06:31;;;;;;;5.20;2.30;;;;;;;11.13;87.97;101694.28;5071313;28;20216;-84
2022/09/22 08:08:59;;;;;;;6.27;2.80;;;;;;;11.32;86.92;101692.41;5071340;28;20235;-84
2022/09/22 08:11:28;;;;;;;5.20;3.00;;;;;;;11.49;85.58;101696.91;5072099;28;20234;-84
2022/09/22 08:13:56;;;;;;;6.87;2.93;;;;;;;11.67;84.67;101693.31;5071843;28;20222;-84
2022/09/22 08:16:24;;;;;;;5.53;2.70;;;;;;;11.85;83.70;101690.66;5071767;28;20208;-83
2022/09/22 08:18:55;;;;;;;7.23;3.00;;;;;;;12.02;82.76;101694.16;5071188;28;20663;-84
2022/09/22 08:21:22;;;;;;;6.53;2.97;;;;;;;12.21;81.71;101687.84;5071287;28;20415;-85
2022/09/22 08:23:51;;;;;;;4.57;3.07;;;;;;;12.38;80.60;101691.34;5071635;28;20562;-85
2022/09/22 08:26:19;;;;;;;6.90;3.47;;;;;;;12.56;79.80;101683.25;5071449;28;20201;-84
2022/09/22 08:28:51;;;;;;;6.83;3.17;;;;;;;12.73;79.37;101683.19;5073481;28;20211;-84
2022/09/22 08:31:19;;;;;;;7.57;3.60;;;;;;;12.91;77.94;101679.47;5079728;28;20208;-84
2022/09/22 08:33:45;;;;;;;11.93;3.57;;;;;;;13.08;77.46;101691.88;5071680;28;20789;-85
2022/09/22 08:36:12;;;;;;;9.60;3.43;;;;;;;13.22;76.12;101681.31;5070965;28;20209;-85
2022/09/22 08:38:39;;;;;;;10.77;3.70;;;;;;;13.38;75.15;101682.13;5066995;28;20232;-84
2022/09/22 08:41:16;;;;;;;8.63;3.23;;;;;;;13.53;74.45;101680.38;5065044;28;20202;-83
2022/09/22 08:43:54;;;;;;;6.97;2.83;;;;;;;13.70;73.50;101679.38;5065615;28;20236;-83
2022/09/22 08:46:24;;;;;;;4.43;2.37;;;;;;;13.87;72.27;101684.56;5062713;28;20215;-85
2022/09/22 08:51:54;;;;;;;4.30;2.00;;;;;;;14.13;69.86;101686.53;5068623;28;20204;-85
2022/09/22 08:54:24;;;;;;;5.47;1.63;;;;;;;14.27;68.64;101680.31;5067950;28;20703;-84
2022/09/22 08:57:02;;;;;;;5.23;2.60;;;;;;;14.44;68.03;101680.13;5067643;28;20201;-84
2022/09/22 08:59:35;;;;;;;3.93;1.83;;;;;;;14.61;66.58;101684.41;5063186;28;20190;-84
2022/09/22 09:02:33;;;;;;;5.60;2.30;;;;;;;14.73;65.36;101683.63;5070020;28;20313;-85
2022/09/22 09:05:23;;;;;;;6.30;1.70;;;;;;;14.86;64.63;101683.72;5073507;28;20250;-83
2022/09/22 09:07:58;;;;;;;4.37;1.77;;;;;;;14.99;63.25;101675.72;5070779;28;20202;-85
2022/09/22 09:10:39;;;;;;;3.20;1.10;;;;;;;15.15;63.05;101679.97;5072846;28;20302;-84
2022/09/22 09:13:27;;;;;;;3.17;1.50;;;;;;;15.32;62.64;101678.00;5074337;28;20725;-84
2022/09/22 09:16:10;;;;;;;6.07;1.87;;;;;;;15.49;61.80;101677.72;5068976;28;20220;-82
2022/09/22 09:18:41;;;;;;;3.57;1.77;;;;;;;15.66;61.44;101677.47;5055430;28;20195;-86
2022/09/22 09:21:13;;;;;;;5.17;1.80;;;;;;;15.79;60.79;101680.16;5065737;28;20212;-83
2022/09/22 09:23:45;;;;;;;3.00;1.23;;;;;;;15.93;60.62;101672.91;5067516;28;20696;-84
2022/09/22 09:26:14;;;;;;;3.33;1.60;;;;;;;16.07;59.98;101679.97;5066969;28;20813;-84
2022/09/22 09:28:46;;;;;;;4.90;1.67;;;;;;;16.17;59.10;101677.50;5061938;28;20207;-84
2022/09/22 09:31:25;;;;;;;6.10;1.80;;;;;;;16.26;58.44;101674.19;5071867;28;20220;-85
2022/09/22 09:33:55;;;;;;;2.97;1.20;;;;;;;16.38;57.92;101683.19;5066357;28;20617;-85
2022/09/22 09:36:23;;;;;;;4.27;1.43;;;;;;;16.48;56.96;101674.34;5063306;28;20205;-82
2022/09/22 09:38:54;;;;;;;5.20;1.30;;;;;;;16.57;56.21;101673.69;5069572;28;20212;-84
2022/09/22 09:41:23;;;;;;;5.57;1.57;;;;;;;16.70;56.19;101662.94;5072696;28;20210;-84
2022/09/22 09:43:53;;;;;;;5.57;1.53;;;;;;;16.82;55.62;101678.19;5068437;28;20235;-84
2022/09/22 09:46:33;;;;;;;5.07;1.13;;;;;;;16.90;55.25;101672.22;5065216;28;20265;-85
2022/09/22 09:49:05;;;;;;;2.60;1.03;;;;;;;17.01;55.11;101661.56;5063766;28;20277;-85
2022/09/22 09:51:34;;;;;;;3.17;0.90;;;;;;;17.11;54.33;101665.25;5064900;28;20206;-85
2022/09/22 09:54:05;;;;;;;3.03;1.30;;;;;;;17.23;54.26;101653.56;5065337;28;20226;-83
2022/09/22 09:56:32;;;;;;;4.23;1.37;;;;;;;17.37;53.54;101657.06;5065956;28;20229;-83
2022/09/22 10:01:49;;;;;;;5.67;1.23;;;;;;;17.57;52.74;101656.38;5070604;28;20216;-84
2022/09/22 10:04:18;;;;;;;3.90;1.13;;;;;;;17.64;51.86;101655.84;5070298;28;20231;-84
2022/09/22 10:06:45;;;;;;;5.67;1.20;;;;;;;17.65;51.50;101656.69;5071896;28;20209;-85
2022/09/22 10:09:25;;;;;;;4.90;1.10;;;;;;;17.67;51.17;101658.31;5073494;28;20235;-85
2022/09/22 10:11:59;;;;;;;3.10;1.07;;;;;;;17.73;51.23;101651.59;5067215;28;20198;-85
2022/09/22 10:14:29;;;;;;;2.10;0.90;;;;;;;17.79;50.50;101647.53;5068745;28;20265;-84
2022/09/22 10:16:57;;;;;;;4.97;1.30;;;;;;;17.88;50.40;101649.53;5066762;28;20547;-85
2022/09/22 10:19:28;;;;;;;4.43;1.43;;;;;;;18.04;50.77;101644.66;5073719;28;20229;-84
2022/09/22 10:22:16;;;;;;;3.37;1.00;;;;;;;18.20;51.23;101647.00;5061398;28;20464;-85
2022/09/22 10:24:53;;;;;;;5.97;1.77;;;;;;;18.29;50.83;101635.44;5064110;28;20214;-86
2022/09/22 10:27:22;;;;;;;4.03;1.53;;;;;;;18.27;50.34;101638.25;5071221;28;20199;-84
2022/09/22 10:30:12;;;;;;;3.00;1.20;;;;;;;18.23;50.73;101641.34;5070862;28;20248;-85
2022/09/22 10:32:40;;;;;;;4.73;1.20;;;;;;;18.20;50.39;101642.44;5072370;28;20242;-84
2022/09/22 10:35:27;;;;;;;3.30;1.37;;;;;;;18.17;50.73;101639.13;5077471;28;20295;-85
2022/09/22 10:37:57;;;;;;;4.40;1.10;;;;;;;18.15;50.56;101628.47;5068564;28;20200;-84
2022/09/22 10:40:25;;;;;;;2.50;1.20;;;;;;;18.14;50.66;101629.44;5076366;28;20209;-84
2022/09/22 10:42:58;;;;;;;4.10;1.40;;;;;;;18.14;50.69;101632.16;5072590;28;20218;-85
2022/09/22 10:45:40;;;;;;;1.87;1.13;;;;;;;18.14;51.30;101632.16;5072827;28;20408;-85
2022/09/22 10:48:18;;;;;;;2.13;0.90;;;;;;;18.21;51.32;101621.75;5077343;28;20206;-84
2022/09/22 10:50:55;;;;;;;2.83;1.33;;;;;;;18.29;50.96;101619.28;5067297;28;20220;-85
2022/09/22 10:53:50;;;;;;;3.50;1.20;;;;;;;18.29;50.12;101616.56;5069530;28;20276;-84
2022/09/22 10:56:25;;;;;;;3.23;1.23;;;;;;;18.25;49.86;101613.28;5066524;28;20348;-84
2022/09/22 10:59:15;;;;;;;2.83;1.47;;;;;;;18.24;49.91;101616.09;5066078;28;20204;-84
2022/09/22 11:02:02;;;;;;;4.00;1.40;;;;;;;18.21;49.88;101611.81;5078063;28;20214;-84
2022/09/22 11:04:50;;;;;;;3.83;1.00;;;;;;;18.21;49.99;101614.50;5068854;28;20771;-85
2022/09/22 11:13:33;;;;;;;2.87;0.90;;;;;;;18.19;48.69;101607.53;5066492;28;20315;-85
2022/09/22 11:16:27;;;;;;;4.47;1.20;;;;;;;18.16;48.58;101605.06;5066179;28;20211;-86
2022/09/22 11:19:06;;;;;;;4.23;1.20;;;;;;;18.16;48.71;101599.66;5068017;28;20202;-85
2022/09/22 11:21:46;;;;;;;2.43;1.10;;;;;;;18.21;48.71;101601.03;5064726;28;20222;-83
2022/09/22 11:24:46;;;;;;;4.73;1.20;;;;;;;18.29;48.42;101595.84;5068644;28;20234;-83
2022/09/22 11:27:19;;;;;;;3.87;0.93;;;;;;;18.34;47.76;101595.50;5062046;28;20222;-85
2022/09/22 11:30:07;;;;;;;3.77;1.27;;;;;;;18.32;47.73;101589.38;5061666;28;20843;-84
2022/09/22 11:32:54;;;;;;;1.63;0.70;;;;;;;18.30;47.47;101569.75;5067121;28;20227;-86
2022/09/22 11:35:53;;;;;;;1.40;0.90;;;;;;;18.24;47.71;101587.31;5065580;28;20230;-85
2022/09/22 11:38:42;;;;;;;3.63;0.90;;;;;;;18.24;48.00;101570.28;5060223;28;20242;-84
2022/09/22 11:41:20;;;;;;;2.13;1.00;;;;;;;18.23;47.62;101571.25;5062475;28;20205;-84
2022/09/22 11:44:08;;;;;;;2.80;0.87;;;;;;;18.26;47.56;101568.31;5063002;28;20219;-85
2022/09/22 11:46:53;;;;;;;1.83;0.80;;;;;;;18.26;46.92;101565.63;5065496;28;20210;-85
2022/09/22 11:49:32;;;;;;;2.60;1.20;;;;;;;18.25;46.75;101561.19;5062380;28;20688;-85
2022/09/22 11:52:15;;;;;;;1.93;1.00;;;;;;;18.24;47.12;101560.34;5064433;28;20234;-83
2022/09/22 11:55:11;;;;;;;3.03;0.90;;;;;;;18.25;47.21;101558.50;5062481;28;20213;-85
2022/09/22 11:57:43;;;;;;;3.30;0.83;;;;;;;18.25;47.02;101553.97;5061028;28;20233;-84
2022/09/22 12:00:15;;;;;;;2.23;0.80;;;;;;;18.27;47.01;101551.16;5063921;28;20210;-84
2022/09/22 12:02:47;;;;;;;2.57;0.90;;;;;;;18.30;46.89;101543.63;5059238;28;20231;-85
2022/09/22 12:05:20;;;;;;;2.33;0.70;;;;;;;18.32;46.98;101557.00;5066645;28;20203;-85